sensor_id;sensor_type;location;lat;lon;timestamp;P1;durP1;ratioP1;P2;durP2;ratioP2
55833;SDS011;41761;43.004;-0.066;2022-10-28T00:01:29;31.70;;;4.90;;
55833;SDS011;41761;43.004;-0.066;2022-10-28T00:03:56;26.02;;;5.07;;
55833;SDS011;41761;43.004;-0.066;2022-10-28T00:06:33;22.17;;;4.82;;
55833;SDS011;41761;43.004;-0.066;2022-10-28T00:08:59;24.60;;;4.80;;
55833;SDS011;41761;43.004;-0.066;2022-10-28T00:11:29;28.45;;;6.32;;
55833;SDS011;41761;43.004;-0.066;2022-10-28T00:13:57;21.10;;;4.30;;
55833;SDS011;41761;43.004;-0.066;2022-10-28T00:16:24;17.02;;;4.43;;
55833;SDS011;41761;43.004;-0.066;2022-10-28T00:18:51;22.08;;;4.47;;
55833;SDS011;41761;43.004;-0.066;2022-10-28T00:21:19;32.08;;;4.80;;
55833;SDS011;41761;43.004;-0.066;2022-10-28T00:23:45;31.48;;;5.38;;
55833;SDS011;41761;43.004;-0.066;2022-10-28T00:26:16;16.58;;;4.22;;
55833;SDS011;41761;43.004;-0.066;2022-10-28T00:28:48;18.45;;;3.92;;
55833;SDS011;41761;43.004;-0.066;2022-10-28T00:31:14;17.70;;;5.30;;
55833;SDS011;41761;43.004;-0.066;2022-10-28T00:33:41;20.02;;;4.47;;
55833;SDS011;41761;43.004;-0.066;2022-10-28T00:36:15;19.80;;;4.65;;
55833;SDS011;41761;43.004;-0.066;2022-10-28T00:38:42;29.35;;;4.70;;
55833;SDS011;41761;43.004;-0.066;2022-10-28T00:41:09;30.45;;;4.60;;
55833;SDS011;41761;43.004;-0.066;2022-10-28T00:43:43;25.02;;;5.22;;
55833;SDS011;41761;43.004;-0.066;2022-10-28T00:46:33;17.45;;;4.38;;
55833;SDS011;41761;43.004;-0.066;2022-10-28T00:49:02;28.90;;;4.75;;
55833;SDS011;41761;43.004;-0.066;2022-10-28T00:51:29;29.95;;;5.32;;
55833;SDS011;41761;43.004;-0.066;2022-10-28T00:53:56;22.70;;;5.25;;
55833;SDS011;41761;43.004;-0.066;2022-10-28T00:56:24;28.65;;;5.05;;
55833;SDS011;41761;43.004;-0.066;2022-10-28T00:58:51;21.67;;;4.97;;
55833;SDS011;41761;43.004;-0.066;2022-10-28T01:01:20;16.98;;;4.50;;
55833;SDS011;41761;43.004;-0.066;2022-10-28T01:03:46;25.17;;;4.80;;
55833;SDS011;41761;43.004;-0.066;2022-10-28T01:06:13;43.30;;;5.63;;
55833;SDS011;41761;43.004;-0.066;2022-10-28T01:08:39;27.38;;;4.53;;
55833;SDS011;41761;43.004;-0.066;2022-10-28T01:14:15;24.02;;;4.65;;
55833;SDS011;41761;43.004;-0.066;2022-10-28T01:16:55;26.33;;;5.20;;
55833;SDS011;41761;43.004;-0.066;2022-10-28T01:21:59;31.48;;;5.10;;
55833;SDS011;41761;43.004;-0.066;2022-10-28T01:29:49;30.27;;;6.03;;
55833;SDS011;41761;43.004;-0.066;2022-10-28T01:32:23;19.27;;;5.38;;
55833;SDS011;41761;43.004;-0.066;2022-10-28T01:40:44;19.75;;;5.03;;
55833;SDS011;41761;43.004;-0.066;2022-10-28T01:43:14;31.27;;;5.18;;
55833;SDS011;41761;43.004;-0.066;2022-10-28T01:46:18;38.25;;;4.50;;
55833;SDS011;41761;43.004;-0.066;2022-10-28T01:51:06;31.23;;;4.65;;
55833;SDS011;41761;43.004;-0.066;2022-10-28T01:53:34;38.47;;;6.95;;
55833;SDS011;41761;43.004;-0.066;2022-10-28T01:56:04;30.63;;;5.43;;
55833;SDS011;41761;43.004;-0.066;2022-10-28T01:58:31;28.38;;;4.32;;
55833;SDS011;41761;43.004;-0.066;2022-10-28T02:00:59;23.83;;;4.60;;
55833;SDS011;41761;43.004;-0.066;2022-10-28T02:03:26;22.73;;;4.63;;
55833;SDS011;41761;43.004;-0.066;2022-10-28T02:05:54;20.70;;;4.85;;
55833;SDS011;41761;43.004;-0.066;2022-10-28T02:08:24;19.30;;;4.80;;
55833;SDS011;41761;43.004;-0.066;2022-10-28T02:13:18;24.23;;;4.75;;
55833;SDS011;41761;43.004;-0.066;2022-10-28T02:15:46;22.88;;;5.30;;
55833;SDS011;41761;43.004;-0.066;2022-10-28T02:21:06;29.92;;;5.20;;
55833;SDS011;41761;43.004;-0.066;2022-10-28T02:26:23;21.17;;;4.18;;
55833;SDS011;41761;43.004;-0.066;2022-10-28T02:29:02;23.73;;;4.75;;
55833;SDS011;41761;43.004;-0.066;2022-10-28T02:31:36;19.85;;;5.47;;
55833;SDS011;41761;43.004;-0.066;2022-10-28T02:34:10;22.83;;;4.80;;
55833;SDS011;41761;43.004;-0.066;2022-10-28T02:36:39;27.50;;;5.53;;
55833;SDS011;41761;43.004;-0.066;2022-10-28T02:39:06;23.75;;;5.30;;
55833;SDS011;41761;43.004;-0.066;2022-10-28T02:41:41;16.27;;;4.15;;
55833;SDS011;41761;43.004;-0.066;2022-10-28T02:44:10;43.35;;;5.22;;
55833;SDS011;41761;43.004;-0.066;2022-10-28T02:46:37;29.58;;;5.10;;
55833;SDS011;41761;43.004;-0.066;2022-10-28T02:49:08;28.17;;;5.07;;
55833;SDS011;41761;43.004;-0.066;2022-10-28T02:51:36;28.17;;;4.82;;
55833;SDS011;41761;43.004;-0.066;2022-10-28T02:54:07;24.48;;;5.00;;
55833;SDS011;41761;43.004;-0.066;2022-10-28T02:56:36;24.35;;;5.03;;
55833;SDS011;41761;43.004;-0.066;2022-10-28T02:59:07;33.65;;;5.43;;
55833;SDS011;41761;43.004;-0.066;2022-10-28T03:01:35;27.58;;;5.47;;
55833;SDS011;41761;43.004;-0.066;2022-10-28T03:04:01;15.43;;;5.15;;
55833;SDS011;41761;43.004;-0.066;2022-10-28T03:06:28;19.67;;;4.50;;
55833;SDS011;41761;43.004;-0.066;2022-10-28T03:08:54;14.70;;;5.53;;
55833;SDS011;41761;43.004;-0.066;2022-10-28T03:11:20;32.72;;;5.32;;
55833;SDS011;41761;43.004;-0.066;2022-10-28T03:13:47;31.48;;;5.28;;
55833;SDS011;41761;43.004;-0.066;2022-10-28T03:16:13;27.20;;;5.72;;
55833;SDS011;41761;43.004;-0.066;2022-10-28T03:18:39;24.65;;;4.80;;
55833;SDS011;41761;43.004;-0.066;2022-10-28T03:21:05;20.90;;;4.85;;
55833;SDS011;41761;43.004;-0.066;2022-10-28T03:23:31;28.67;;;4.70;;
55833;SDS011;41761;43.004;-0.066;2022-10-28T03:25:58;18.80;;;5.63;;
55833;SDS011;41761;43.004;-0.066;2022-10-28T03:28:24;29.20;;;4.97;;
55833;SDS011;41761;43.004;-0.066;2022-10-28T03:30:50;27.98;;;4.80;;
55833;SDS011;41761;43.004;-0.066;2022-10-28T03:33:16;28.95;;;4.95;;
55833;SDS011;41761;43.004;-0.066;2022-10-28T03:35:43;20.70;;;5.60;;
55833;SDS011;41761;43.004;-0.066;2022-10-28T03:38:09;24.15;;;5.40;;
55833;SDS011;41761;43.004;-0.066;2022-10-28T03:40:35;23.02;;;4.95;;
55833;SDS011;41761;43.004;-0.066;2022-10-28T03:43:01;23.20;;;5.72;;
55833;SDS011;41761;43.004;-0.066;2022-10-28T03:45:27;25.45;;;6.13;;
55833;SDS011;41761;43.004;-0.066;2022-10-28T03:47:54;32.63;;;5.65;;
55833;SDS011;41761;43.004;-0.066;2022-10-28T03:50:20;29.65;;;5.75;;
55833;SDS011;41761;43.004;-0.066;2022-10-28T03:52:46;17.65;;;4.57;;
55833;SDS011;41761;43.004;-0.066;2022-10-28T03:55:12;22.38;;;5.25;;
55833;SDS011;41761;43.004;-0.066;2022-10-28T03:57:38;19.40;;;5.75;;
55833;SDS011;41761;43.004;-0.066;2022-10-28T04:00:05;17.88;;;5.47;;
55833;SDS011;41761;43.004;-0.066;2022-10-28T04:02:31;19.33;;;4.72;;
55833;SDS011;41761;43.004;-0.066;2022-10-28T04:04:57;24.15;;;5.75;;
55833;SDS011;41761;43.004;-0.066;2022-10-28T04:07:23;25.38;;;5.30;;
55833;SDS011;41761;43.004;-0.066;2022-10-28T04:09:50;18.48;;;4.97;;
55833;SDS011;41761;43.004;-0.066;2022-10-28T04:12:16;20.23;;;5.28;;
55833;SDS011;41761;43.004;-0.066;2022-10-28T04:14:43;20.05;;;5.93;;
55833;SDS011;41761;43.004;-0.066;2022-10-28T04:17:09;28.45;;;5.68;;
55833;SDS011;41761;43.004;-0.066;2022-10-28T04:19:35;26.05;;;6.93;;
55833;SDS011;41761;43.004;-0.066;2022-10-28T04:22:01;22.02;;;5.50;;
55833;SDS011;41761;43.004;-0.066;2022-10-28T04:24:27;16.73;;;5.13;;
55833;SDS011;41761;43.004;-0.066;2022-10-28T04:26:53;32.88;;;6.18;;
55833;SDS011;41761;43.004;-0.066;2022-10-28T04:29:20;27.40;;;6.43;;
55833;SDS011;41761;43.004;-0.066;2022-10-28T04:31:46;26.15;;;5.82;;
55833;SDS011;41761;43.004;-0.066;2022-10-28T04:34:12;21.58;;;4.53;;
55833;SDS011;41761;43.004;-0.066;2022-10-28T04:36:38;23.90;;;5.40;;
55833;SDS011;41761;43.004;-0.066;2022-10-28T04:39:04;23.77;;;6.40;;
55833;SDS011;41761;43.004;-0.066;2022-10-28T04:41:30;27.13;;;5.88;;
55833;SDS011;41761;43.004;-0.066;2022-10-28T04:43:57;23.40;;;5.65;;
55833;SDS011;41761;43.004;-0.066;2022-10-28T04:46:23;33.30;;;6.38;;
55833;SDS011;41761;43.004;-0.066;2022-10-28T04:48:49;20.40;;;5.97;;
55833;SDS011;41761;43.004;-0.066;2022-10-28T04:51:15;27.52;;;5.10;;
55833;SDS011;41761;43.004;-0.066;2022-10-28T04:53:41;25.50;;;5.80;;
55833;SDS011;41761;43.004;-0.066;2022-10-28T04:56:08;28.45;;;6.15;;
55833;SDS011;41761;43.004;-0.066;2022-10-28T04:58:34;30.02;;;6.55;;
55833;SDS011;41761;43.004;-0.066;2022-10-28T05:01:04;28.65;;;5.05;;
55833;SDS011;41761;43.004;-0.066;2022-10-28T05:03:31;21.27;;;5.22;;
55833;SDS011;41761;43.004;-0.066;2022-10-28T05:05:57;32.10;;;5.85;;
55833;SDS011;41761;43.004;-0.066;2022-10-28T05:08:23;34.92;;;5.72;;
55833;SDS011;41761;43.004;-0.066;2022-10-28T05:10:49;26.33;;;5.22;;
55833;SDS011;41761;43.004;-0.066;2022-10-28T05:13:16;30.80;;;5.40;;
55833;SDS011;41761;43.004;-0.066;2022-10-28T05:15:42;16.65;;;5.85;;
55833;SDS011;41761;43.004;-0.066;2022-10-28T05:18:08;23.65;;;6.30;;
55833;SDS011;41761;43.004;-0.066;2022-10-28T05:20:35;24.02;;;6.60;;
55833;SDS011;41761;43.004;-0.066;2022-10-28T05:23:01;29.38;;;6.40;;
55833;SDS011;41761;43.004;-0.066;2022-10-28T05:25:27;34.42;;;8.77;;
55833;SDS011;41761;43.004;-0.066;2022-10-28T05:27:56;40.60;;;10.27;;
55833;SDS011;41761;43.004;-0.066;2022-10-28T05:30:23;45.90;;;7.05;;
55833;SDS011;41761;43.004;-0.066;2022-10-28T05:32:49;26.90;;;5.78;;
55833;SDS011;41761;43.004;-0.066;2022-10-28T05:35:15;23.23;;;5.72;;
55833;SDS011;41761;43.004;-0.066;2022-10-28T05:37:42;27.40;;;5.68;;
55833;SDS011;41761;43.004;-0.066;2022-10-28T05:40:08;30.90;;;6.03;;
55833;SDS011;41761;43.004;-0.066;2022-10-28T05:42:41;21.95;;;6.75;;
55833;SDS011;41761;43.004;-0.066;2022-10-28T05:45:08;24.75;;;6.30;;
55833;SDS011;41761;43.004;-0.066;2022-10-28T05:47:34;22.35;;;6.50;;
55833;SDS011;41761;43.004;-0.066;2022-10-28T05:50:00;18.80;;;6.30;;
55833;SDS011;41761;43.004;-0.066;2022-10-28T05:52:27;25.65;;;6.35;;
55833;SDS011;41761;43.004;-0.066;2022-10-28T05:54:53;25.58;;;6.00;;
55833;SDS011;41761;43.004;-0.066;2022-10-28T05:57:19;25.95;;;6.13;;
55833;SDS011;41761;43.004;-0.066;2022-10-28T05:59:45;23.58;;;5.85;;
55833;SDS011;41761;43.004;-0.066;2022-10-28T06:02:14;14.98;;;5.28;;
55833;SDS011;41761;43.004;-0.066;2022-10-28T06:04:40;23.90;;;5.63;;
55833;SDS011;41761;43.004;-0.066;2022-10-28T06:07:07;23.27;;;5.88;;
55833;SDS011;41761;43.004;-0.066;2022-10-28T06:09:33;26.70;;;6.45;;
55833;SDS011;41761;43.004;-0.066;2022-10-28T06:11:59;26.02;;;6.65;;
55833;SDS011;41761;43.004;-0.066;2022-10-28T06:14:25;24.92;;;5.55;;
55833;SDS011;41761;43.004;-0.066;2022-10-28T06:16:52;21.77;;;5.93;;
55833;SDS011;41761;43.004;-0.066;2022-10-28T06:19:18;22.50;;;6.13;;
55833;SDS011;41761;43.004;-0.066;2022-10-28T06:21:44;40.42;;;6.82;;
55833;SDS011;41761;43.004;-0.066;2022-10-28T06:24:10;32.00;;;6.15;;
55833;SDS011;41761;43.004;-0.066;2022-10-28T06:26:36;27.27;;;6.30;;
55833;SDS011;41761;43.004;-0.066;2022-10-28T06:29:03;32.75;;;5.55;;
55833;SDS011;41761;43.004;-0.066;2022-10-28T06:31:29;29.30;;;6.47;;
55833;SDS011;41761;43.004;-0.066;2022-10-28T06:33:55;31.60;;;5.68;;
55833;SDS011;41761;43.004;-0.066;2022-10-28T06:36:21;24.50;;;5.40;;
55833;SDS011;41761;43.004;-0.066;2022-10-28T06:38:48;21.02;;;6.25;;
55833;SDS011;41761;43.004;-0.066;2022-10-28T06:41:14;38.28;;;5.63;;
55833;SDS011;41761;43.004;-0.066;2022-10-28T06:43:40;24.85;;;5.93;;
55833;SDS011;41761;43.004;-0.066;2022-10-28T06:46:06;44.83;;;6.82;;
55833;SDS011;41761;43.004;-0.066;2022-10-28T06:48:32;60.22;;;7.35;;
55833;SDS011;41761;43.004;-0.066;2022-10-28T06:50:59;32.47;;;6.43;;
55833;SDS011;41761;43.004;-0.066;2022-10-28T06:53:25;35.00;;;5.97;;
55833;SDS011;41761;43.004;-0.066;2022-10-28T06:55:54;38.40;;;6.82;;
55833;SDS011;41761;43.004;-0.066;2022-10-28T06:58:21;45.20;;;6.35;;
55833;SDS011;41761;43.004;-0.066;2022-10-28T07:00:47;41.33;;;6.30;;
55833;SDS011;41761;43.004;-0.066;2022-10-28T07:03:14;34.25;;;5.82;;
55833;SDS011;41761;43.004;-0.066;2022-10-28T07:05:40;36.50;;;5.68;;
55833;SDS011;41761;43.004;-0.066;2022-10-28T07:08:06;20.20;;;5.63;;
55833;SDS011;41761;43.004;-0.066;2022-10-28T07:10:32;24.52;;;5.00;;
55833;SDS011;41761;43.004;-0.066;2022-10-28T07:12:59;33.75;;;6.25;;
55833;SDS011;41761;43.004;-0.066;2022-10-28T07:15:25;42.53;;;6.35;;
55833;SDS011;41761;43.004;-0.066;2022-10-28T07:17:52;28.02;;;6.05;;
55833;SDS011;41761;43.004;-0.066;2022-10-28T07:20:18;24.30;;;5.95;;
55833;SDS011;41761;43.004;-0.066;2022-10-28T07:22:44;22.52;;;5.85;;
55833;SDS011;41761;43.004;-0.066;2022-10-28T07:25:10;26.00;;;5.47;;
55833;SDS011;41761;43.004;-0.066;2022-10-28T07:27:36;35.40;;;5.80;;
55833;SDS011;41761;43.004;-0.066;2022-10-28T07:30:03;64.65;;;6.55;;
55833;SDS011;41761;43.004;-0.066;2022-10-28T07:32:32;31.55;;;5.22;;
55833;SDS011;41761;43.004;-0.066;2022-10-28T07:34:58;35.25;;;5.85;;
55833;SDS011;41761;43.004;-0.066;2022-10-28T07:37:25;33.55;;;6.25;;
55833;SDS011;41761;43.004;-0.066;2022-10-28T07:39:51;36.80;;;5.05;;
55833;SDS011;41761;43.004;-0.066;2022-10-28T07:42:17;25.73;;;5.72;;
55833;SDS011;41761;43.004;-0.066;2022-10-28T07:44:43;23.10;;;4.88;;
55833;SDS011;41761;43.004;-0.066;2022-10-28T07:47:09;27.92;;;6.07;;
55833;SDS011;41761;43.004;-0.066;2022-10-28T07:49:35;26.95;;;5.97;;
55833;SDS011;41761;43.004;-0.066;2022-10-28T07:52:02;18.83;;;5.15;;
55833;SDS011;41761;43.004;-0.066;2022-10-28T07:54:28;27.50;;;5.05;;
55833;SDS011;41761;43.004;-0.066;2022-10-28T07:56:56;36.78;;;5.72;;
55833;SDS011;41761;43.004;-0.066;2022-10-28T07:59:23;44.95;;;5.00;;
55833;SDS011;41761;43.004;-0.066;2022-10-28T08:01:49;29.80;;;5.40;;
55833;SDS011;41761;43.004;-0.066;2022-10-28T08:04:15;21.10;;;5.00;;
55833;SDS011;41761;43.004;-0.066;2022-10-28T08:06:41;50.90;;;5.75;;
55833;SDS011;41761;43.004;-0.066;2022-10-28T08:09:08;29.80;;;5.13;;
55833;SDS011;41761;43.004;-0.066;2022-10-28T08:11:34;23.45;;;4.47;;
55833;SDS011;41761;43.004;-0.066;2022-10-28T08:14:01;26.77;;;5.43;;
55833;SDS011;41761;43.004;-0.066;2022-10-28T08:16:27;27.77;;;4.10;;
55833;SDS011;41761;43.004;-0.066;2022-10-28T08:18:53;23.30;;;3.95;;
55833;SDS011;41761;43.004;-0.066;2022-10-28T08:21:21;22.88;;;4.72;;
55833;SDS011;41761;43.004;-0.066;2022-10-28T08:23:48;23.58;;;4.93;;
55833;SDS011;41761;43.004;-0.066;2022-10-28T08:26:15;22.02;;;4.72;;
55833;SDS011;41761;43.004;-0.066;2022-10-28T08:28:42;23.35;;;4.18;;
55833;SDS011;41761;43.004;-0.066;2022-10-28T08:31:09;27.52;;;6.07;;
55833;SDS011;41761;43.004;-0.066;2022-10-28T08:33:37;35.47;;;4.65;;
55833;SDS011;41761;43.004;-0.066;2022-10-28T08:36:03;19.92;;;4.30;;
55833;SDS011;41761;43.004;-0.066;2022-10-28T08:38:30;21.02;;;5.07;;
55833;SDS011;41761;43.004;-0.066;2022-10-28T08:41:02;21.27;;;3.97;;
55833;SDS011;41761;43.004;-0.066;2022-10-28T08:46:22;12.73;;;3.70;;
55833;SDS011;41761;43.004;-0.066;2022-10-28T08:48:52;27.50;;;5.72;;
55833;SDS011;41761;43.004;-0.066;2022-10-28T08:51:19;28.00;;;3.60;;
55833;SDS011;41761;43.004;-0.066;2022-10-28T08:53:51;21.40;;;3.38;;
55833;SDS011;41761;43.004;-0.066;2022-10-28T08:56:22;14.75;;;3.63;;
55833;SDS011;41761;43.004;-0.066;2022-10-28T08:58:50;21.75;;;4.30;;
55833;SDS011;41761;43.004;-0.066;2022-10-28T09:01:21;16.98;;;3.90;;
55833;SDS011;41761;43.004;-0.066;2022-10-28T09:03:51;15.30;;;3.63;;
55833;SDS011;41761;43.004;-0.066;2022-10-28T09:06:17;24.15;;;3.67;;
55833;SDS011;41761;43.004;-0.066;2022-10-28T09:08:45;23.10;;;3.50;;
55833;SDS011;41761;43.004;-0.066;2022-10-28T09:11:19;38.75;;;4.45;;
55833;SDS011;41761;43.004;-0.066;2022-10-28T09:14:00;35.38;;;4.30;;
55833;SDS011;41761;43.004;-0.066;2022-10-28T09:16:46;21.85;;;3.90;;
55833;SDS011;41761;43.004;-0.066;2022-10-28T09:19:14;17.50;;;3.55;;
55833;SDS011;41761;43.004;-0.066;2022-10-28T09:21:47;22.08;;;3.75;;
55833;SDS011;41761;43.004;-0.066;2022-10-28T09:24:19;37.70;;;5.43;;
55833;SDS011;41761;43.004;-0.066;2022-10-28T09:26:51;30.30;;;4.27;;
55833;SDS011;41761;43.004;-0.066;2022-10-28T09:29:21;25.50;;;4.15;;
55833;SDS011;41761;43.004;-0.066;2022-10-28T09:32:00;14.15;;;3.25;;
55833;SDS011;41761;43.004;-0.066;2022-10-28T09:39:52;30.15;;;4.28;;
55833;SDS011;41761;43.004;-0.066;2022-10-28T09:42:21;24.05;;;5.15;;
55833;SDS011;41761;43.004;-0.066;2022-10-28T09:47:21;25.45;;;4.30;;
55833;SDS011;41761;43.004;-0.066;2022-10-28T09:49:49;24.65;;;4.53;;
55833;SDS011;41761;43.004;-0.066;2022-10-28T09:52:22;26.50;;;5.38;;
55833;SDS011;41761;43.004;-0.066;2022-10-28T09:54:50;21.75;;;3.95;;
55833;SDS011;41761;43.004;-0.066;2022-10-28T09:57:17;21.50;;;4.05;;
55833;SDS011;41761;43.004;-0.066;2022-10-28T09:59:44;19.10;;;4.13;;
55833;SDS011;41761;43.004;-0.066;2022-10-28T10:02:32;18.50;;;4.72;;
55833;SDS011;41761;43.004;-0.066;2022-10-28T10:04:58;23.30;;;4.07;;
55833;SDS011;41761;43.004;-0.066;2022-10-28T10:07:30;35.35;;;4.75;;
55833;SDS011;41761;43.004;-0.066;2022-10-28T10:09:58;20.80;;;3.40;;
55833;SDS011;41761;43.004;-0.066;2022-10-28T10:12:26;40.00;;;4.40;;
55833;SDS011;41761;43.004;-0.066;2022-10-28T10:14:54;24.52;;;5.47;;
55833;SDS011;41761;43.004;-0.066;2022-10-28T10:17:43;40.80;;;6.00;;
55833;SDS011;41761;43.004;-0.066;2022-10-28T10:20:14;27.02;;;4.20;;
55833;SDS011;41761;43.004;-0.066;2022-10-28T10:22:42;23.80;;;4.35;;
55833;SDS011;41761;43.004;-0.066;2022-10-28T10:27:54;26.60;;;4.00;;
55833;SDS011;41761;43.004;-0.066;2022-10-28T10:31:04;30.15;;;4.60;;
55833;SDS011;41761;43.004;-0.066;2022-10-28T10:33:16;26.60;;;4.07;;
55833;SDS011;41761;43.004;-0.066;2022-10-28T10:35:43;17.77;;;4.25;;
55833;SDS011;41761;43.004;-0.066;2022-10-28T10:38:17;30.55;;;4.20;;
55833;SDS011;41761;43.004;-0.066;2022-10-28T10:40:48;27.30;;;4.07;;
55833;SDS011;41761;43.004;-0.066;2022-10-28T10:45:40;24.20;;;3.83;;
55833;SDS011;41761;43.004;-0.066;2022-10-28T10:48:14;23.20;;;4.05;;
55833;SDS011;41761;43.004;-0.066;2022-10-28T10:50:42;34.50;;;4.53;;
55833;SDS011;41761;43.004;-0.066;2022-10-28T10:53:15;24.70;;;4.78;;
55833;SDS011;41761;43.004;-0.066;2022-10-28T10:55:46;32.55;;;4.13;;
55833;SDS011;41761;43.004;-0.066;2022-10-28T10:58:14;34.75;;;4.20;;
55833;SDS011;41761;43.004;-0.066;2022-10-28T11:00:46;31.10;;;4.00;;
55833;SDS011;41761;43.004;-0.066;2022-10-28T11:03:46;30.17;;;4.28;;
55833;SDS011;41761;43.004;-0.066;2022-10-28T11:06:06;25.88;;;4.85;;
55833;SDS011;41761;43.004;-0.066;2022-10-28T11:08:37;40.90;;;4.75;;
55833;SDS011;41761;43.004;-0.066;2022-10-28T11:13:33;40.65;;;4.88;;
55833;SDS011;41761;43.004;-0.066;2022-10-28T11:16:22;19.20;;;5.35;;
55833;SDS011;41761;43.004;-0.066;2022-10-28T11:18:47;19.20;;;3.90;;
55833;SDS011;41761;43.004;-0.066;2022-10-28T11:26:15;33.72;;;4.13;;
55833;SDS011;41761;43.004;-0.066;2022-10-28T11:37:13;30.77;;;4.65;;
55833;SDS011;41761;43.004;-0.066;2022-10-28T11:44:53;37.63;;;4.07;;
55833;SDS011;41761;43.004;-0.066;2022-10-28T11:49:52;34.00;;;4.28;;
55833;SDS011;41761;43.004;-0.066;2022-10-28T11:57:41;43.40;;;4.97;;
55833;SDS011;41761;43.004;-0.066;2022-10-28T12:00:24;25.88;;;4.88;;
55833;SDS011;41761;43.004;-0.066;2022-10-28T12:13:27;27.45;;;5.22;;
55833;SDS011;41761;43.004;-0.066;2022-10-28T12:21:02;23.85;;;3.75;;
55833;SDS011;41761;43.004;-0.066;2022-10-28T12:23:30;17.70;;;4.70;;
55833;SDS011;41761;43.004;-0.066;2022-10-28T12:25:58;31.85;;;4.25;;
55833;SDS011;41761;43.004;-0.066;2022-10-28T12:30:55;14.82;;;3.92;;
55833;SDS011;41761;43.004;-0.066;2022-10-28T12:33:43;28.63;;;3.97;;
55833;SDS011;41761;43.004;-0.066;2022-10-28T12:41:03;22.75;;;5.53;;
55833;SDS011;41761;43.004;-0.066;2022-10-28T12:43:32;29.80;;;4.00;;
55833;SDS011;41761;43.004;-0.066;2022-10-28T12:46:00;19.52;;;4.35;;
55833;SDS011;41761;43.004;-0.066;2022-10-28T12:48:30;24.45;;;4.05;;
55833;SDS011;41761;43.004;-0.066;2022-10-28T12:51:32;16.98;;;4.03;;
55833;SDS011;41761;43.004;-0.066;2022-10-28T12:54:13;25.63;;;3.90;;
55833;SDS011;41761;43.004;-0.066;2022-10-28T12:57:03;23.50;;;4.45;;
55833;SDS011;41761;43.004;-0.066;2022-10-28T12:59:32;20.15;;;3.92;;
55833;SDS011;41761;43.004;-0.066;2022-10-28T13:02:00;28.98;;;4.50;;
55833;SDS011;41761;43.004;-0.066;2022-10-28T13:04:27;19.75;;;4.75;;
55833;SDS011;41761;43.004;-0.066;2022-10-28T13:07:15;30.95;;;5.05;;
55833;SDS011;41761;43.004;-0.066;2022-10-28T13:09:55;26.63;;;5.50;;
55833;SDS011;41761;43.004;-0.066;2022-10-28T13:18:35;27.58;;;5.03;;
55833;SDS011;41761;43.004;-0.066;2022-10-28T13:23:22;25.35;;;4.78;;
55833;SDS011;41761;43.004;-0.066;2022-10-28T13:25:55;15.48;;;4.65;;
55833;SDS011;41761;43.004;-0.066;2022-10-28T13:28:26;32.55;;;5.55;;
55833;SDS011;41761;43.004;-0.066;2022-10-28T13:33:21;20.70;;;5.28;;
55833;SDS011;41761;43.004;-0.066;2022-10-28T13:35:48;19.08;;;4.22;;
55833;SDS011;41761;43.004;-0.066;2022-10-28T13:38:17;30.88;;;4.88;;
55833;SDS011;41761;43.004;-0.066;2022-10-28T13:43:20;26.10;;;5.07;;
55833;SDS011;41761;43.004;-0.066;2022-10-28T13:53:37;47.42;;;6.50;;
55833;SDS011;41761;43.004;-0.066;2022-10-28T13:58:48;39.72;;;4.78;;
55833;SDS011;41761;43.004;-0.066;2022-10-28T14:04:00;22.65;;;4.70;;
55833;SDS011;41761;43.004;-0.066;2022-10-28T14:06:28;32.97;;;5.60;;
55833;SDS011;41761;43.004;-0.066;2022-10-28T14:08:56;46.72;;;5.45;;
55833;SDS011;41761;43.004;-0.066;2022-10-28T14:11:22;20.63;;;4.55;;
55833;SDS011;41761;43.004;-0.066;2022-10-28T14:13:52;27.00;;;4.60;;
55833;SDS011;41761;43.004;-0.066;2022-10-28T14:18:53;36.97;;;5.10;;
55833;SDS011;41761;43.004;-0.066;2022-10-28T14:21:20;28.42;;;4.55;;
55833;SDS011;41761;43.004;-0.066;2022-10-28T14:26:14;19.77;;;5.05;;
55833;SDS011;41761;43.004;-0.066;2022-10-28T14:33:34;40.05;;;6.07;;
55833;SDS011;41761;43.004;-0.066;2022-10-28T14:43:38;20.50;;;4.45;;
55833;SDS011;41761;43.004;-0.066;2022-10-28T14:51:20;23.52;;;4.95;;
55833;SDS011;41761;43.004;-0.066;2022-10-28T14:53:48;45.75;;;6.82;;
55833;SDS011;41761;43.004;-0.066;2022-10-28T14:56:24;37.55;;;5.18;;
55833;SDS011;41761;43.004;-0.066;2022-10-28T14:58:51;27.30;;;4.97;;
55833;SDS011;41761;43.004;-0.066;2022-10-28T15:01:20;16.25;;;4.60;;
55833;SDS011;41761;43.004;-0.066;2022-10-28T15:03:48;25.70;;;5.60;;
55833;SDS011;41761;43.004;-0.066;2022-10-28T15:06:34;20.98;;;4.78;;
55833;SDS011;41761;43.004;-0.066;2022-10-28T15:09:02;30.17;;;5.20;;
55833;SDS011;41761;43.004;-0.066;2022-10-28T15:11:29;18.23;;;4.22;;
55833;SDS011;41761;43.004;-0.066;2022-10-28T15:13:59;23.65;;;4.93;;
55833;SDS011;41761;43.004;-0.066;2022-10-28T15:16:25;36.13;;;5.50;;
55833;SDS011;41761;43.004;-0.066;2022-10-28T15:18:52;23.80;;;5.50;;
55833;SDS011;41761;43.004;-0.066;2022-10-28T15:21:19;30.27;;;6.25;;
55833;SDS011;41761;43.004;-0.066;2022-10-28T15:24:01;51.85;;;5.40;;
55833;SDS011;41761;43.004;-0.066;2022-10-28T15:26:31;42.65;;;6.18;;
55833;SDS011;41761;43.004;-0.066;2022-10-28T15:28:57;46.00;;;6.05;;
55833;SDS011;41761;43.004;-0.066;2022-10-28T15:31:25;44.28;;;6.75;;
55833;SDS011;41761;43.004;-0.066;2022-10-28T15:33:51;27.55;;;5.88;;
55833;SDS011;41761;43.004;-0.066;2022-10-28T15:36:18;25.10;;;6.15;;
55833;SDS011;41761;43.004;-0.066;2022-10-28T15:38:45;26.17;;;5.63;;
55833;SDS011;41761;43.004;-0.066;2022-10-28T15:41:33;42.63;;;5.90;;
55833;SDS011;41761;43.004;-0.066;2022-10-28T15:44:03;37.08;;;6.70;;
55833;SDS011;41761;43.004;-0.066;2022-10-28T15:46:30;26.73;;;6.07;;
55833;SDS011;41761;43.004;-0.066;2022-10-28T15:48:57;36.65;;;5.75;;
55833;SDS011;41761;43.004;-0.066;2022-10-28T15:51:24;27.02;;;5.75;;
55833;SDS011;41761;43.004;-0.066;2022-10-28T15:54:08;29.60;;;6.13;;
55833;SDS011;41761;43.004;-0.066;2022-10-28T15:56:51;25.63;;;6.10;;
55833;SDS011;41761;43.004;-0.066;2022-10-28T15:59:21;29.92;;;5.00;;
55833;SDS011;41761;43.004;-0.066;2022-10-28T16:01:48;27.63;;;5.50;;
55833;SDS011;41761;43.004;-0.066;2022-10-28T16:06:43;43.78;;;6.65;;
55833;SDS011;41761;43.004;-0.066;2022-10-28T16:09:30;41.45;;;5.60;;
55833;SDS011;41761;43.004;-0.066;2022-10-28T16:12:03;29.45;;;5.18;;
55833;SDS011;41761;43.004;-0.066;2022-10-28T16:14:37;33.03;;;6.07;;
55833;SDS011;41761;43.004;-0.066;2022-10-28T16:17:14;32.85;;;5.60;;
55833;SDS011;41761;43.004;-0.066;2022-10-28T16:19:43;30.73;;;5.88;;
55833;SDS011;41761;43.004;-0.066;2022-10-28T16:22:11;34.97;;;5.70;;
55833;SDS011;41761;43.004;-0.066;2022-10-28T16:24:39;42.22;;;6.57;;
55833;SDS011;41761;43.004;-0.066;2022-10-28T16:30:01;16.27;;;5.20;;
55833;SDS011;41761;43.004;-0.066;2022-10-28T16:32:31;39.67;;;8.35;;
55833;SDS011;41761;43.004;-0.066;2022-10-28T16:34:59;44.53;;;6.75;;
55833;SDS011;41761;43.004;-0.066;2022-10-28T16:37:26;19.30;;;5.50;;
55833;SDS011;41761;43.004;-0.066;2022-10-28T16:39:53;27.58;;;6.85;;
55833;SDS011;41761;43.004;-0.066;2022-10-28T16:42:19;19.25;;;5.80;;
55833;SDS011;41761;43.004;-0.066;2022-10-28T16:44:46;29.27;;;6.25;;
55833;SDS011;41761;43.004;-0.066;2022-10-28T16:47:13;30.33;;;6.72;;
55833;SDS011;41761;43.004;-0.066;2022-10-28T16:49:40;32.85;;;6.05;;
55833;SDS011;41761;43.004;-0.066;2022-10-28T16:52:16;26.42;;;6.50;;
55833;SDS011;41761;43.004;-0.066;2022-10-28T16:54:44;36.08;;;7.10;;
55833;SDS011;41761;43.004;-0.066;2022-10-28T16:57:12;27.33;;;6.47;;
55833;SDS011;41761;43.004;-0.066;2022-10-28T16:59:38;28.25;;;6.97;;
55833;SDS011;41761;43.004;-0.066;2022-10-28T17:02:37;28.38;;;7.22;;